Time;durP1;ratioP1;P1;durP2;ratioP2;P2;SDS_P1;SDS_P2;PMS_P1;PMS_P2;Temp;Humidity;BMP_temperature;BMP_pressure;BME280_temperature;BME280_humidity;BME280_pressure;Samples;Min_cycle;Max_cycle;Signal;HPM_P1;HPM_P2
2022/07/31 00:01:16;;;;;;;1.58;1.10;;;22.50;93.30;;;;;;5068874;28;20041;-81
2022/07/31 00:03:42;;;;;;;1.70;1.02;;;22.40;93.40;;;;;;5065577;28;20055;-81
2022/07/31 00:06:08;;;;;;;2.33;1.33;;;22.40;93.50;;;;;;5067166;28;20067;-81
2022/07/31 00:08:34;;;;;;;2.92;1.40;;;22.30;93.50;;;;;;5081912;28;20548;-81
2022/07/31 00:11:00;;;;;;;1.88;1.08;;;22.30;93.60;;;;;;5069482;28;20048;-81
2022/07/31 00:13:25;;;;;;;2.30;1.17;;;22.30;93.90;;;;;;5071078;28;20091;-81
2022/07/31 00:15:51;;;;;;;2.85;1.33;;;22.40;93.70;;;;;;5071238;28;20636;-81
2022/07/31 00:18:17;;;;;;;1.92;1.13;;;22.40;93.70;;;;;;5070198;28;20043;-81
2022/07/31 00:20:43;;;;;;;1.35;1.02;;;22.40;93.70;;;;;;5064182;28;20443;-81
2022/07/31 00:23:09;;;;;;;2.95;1.27;;;22.30;93.80;;;;;;5064652;28;20091;-81
2022/07/31 00:25:35;;;;;;;3.13;1.15;;;22.20;93.90;;;;;;5064787;28;20040;-81
2022/07/31 00:28:02;;;;;;;3.92;1.20;;;22.20;93.90;;;;;;5081632;28;20146;-81
2022/07/31 00:30:28;;;;;;;1.45;1.05;;;22.20;94.00;;;;;;5065929;28;20037;-81
2022/07/31 00:32:54;;;;;;;1.63;1.20;;;22.10;94.10;;;;;;5063230;28;20036;-81
2022/07/31 00:35:20;;;;;;;1.25;0.77;;;22.20;94.10;;;;;;5065010;28;20040;-81
2022/07/31 00:37:45;;;;;;;2.17;0.90;;;22.10;94.10;;;;;;5064634;28;20032;-81
2022/07/31 00:40:14;;;;;;;2.65;1.75;;;22.10;94.40;;;;;;5064757;28;20128;-81
2022/07/31 00:42:40;;;;;;;2.13;1.10;;;22.10;94.20;;;;;;5063908;28;20518;-82
2022/07/31 00:45:07;;;;;;;1.17;1.00;;;22.10;94.20;;;;;;5063308;28;20046;-81
2022/07/31 00:47:32;;;;;;;1.95;0.90;;;22.10;94.20;;;;;;5082450;28;20400;-81
2022/07/31 00:49:58;;;;;;;1.25;0.90;;;22.10;94.20;;;;;;5066987;28;20045;-81
2022/07/31 00:52:24;;;;;;;1.15;0.77;;;22.00;94.30;;;;;;5079527;28;20064;-81
2022/07/31 00:54:50;;;;;;;2.10;1.13;;;22.00;94.40;;;;;;5066403;28;20672;-81
2022/07/31 00:57:16;;;;;;;1.67;1.17;;;22.00;94.40;;;;;;5066086;28;20041;-81
2022/07/31 00:59:42;;;;;;;1.35;1.02;;;22.00;94.50;;;;;;5065365;28;20763;-81
2022/07/31 01:02:09;;;;;;;6.68;1.27;;;22.00;94.50;;;;;;5097525;27;20079;-80
2022/07/31 01:04:35;;;;;;;1.33;0.95;;;21.90;94.50;;;;;;5065385;28;20328;-81
2022/07/31 01:07:01;;;;;;;1.50;1.00;;;22.00;94.60;;;;;;5063610;28;21077;-81
2022/07/31 01:09:27;;;;;;;1.35;0.90;;;22.00;94.60;;;;;;5063211;28;20409;-81
2022/07/31 01:12:16;;;;;;;1.65;1.30;;;22.00;94.60;;;;;;5064516;28;20041;-81
2022/07/31 01:14:49;;;;;;;2.75;1.20;;;21.90;94.60;;;;;;5063126;28;20124;-81
2022/07/31 01:17:16;;;;;;;3.38;1.13;;;21.80;94.70;;;;;;5061417;28;20129;-81
2022/07/31 01:19:47;;;;;;;1.58;0.85;;;21.80;94.70;;;;;;5064620;28;20695;-81
2022/07/31 01:22:51;;;;;;;1.92;1.00;;;21.70;94.80;;;;;;5066852;28;21047;-81
2022/07/31 01:25:49;;;;;;;1.80;1.00;;;21.70;95.00;;;;;;5062487;28;20053;-81
2022/07/31 01:28:31;;;;;;;2.08;1.35;;;21.70;95.00;;;;;;5007050;28;20141;-82
2022/07/31 01:31:08;;;;;;;1.55;0.90;;;21.60;95.10;;;;;;5066297;28;20102;-81
2022/07/31 01:33:52;;;;;;;2.92;1.20;;;21.60;95.20;;;;;;5063242;28;20044;-82
2022/07/31 01:36:25;;;;;;;3.70;1.08;;;21.60;95.30;;;;;;5064365;28;20047;-82
2022/07/31 01:38:55;;;;;;;2.45;1.33;;;21.60;95.40;;;;;;5079729;28;20655;-81
2022/07/31 01:41:26;;;;;;;2.53;1.20;;;21.60;95.40;;;;;;5061586;28;20584;-81
2022/07/31 01:43:55;;;;;;;2.20;1.20;;;21.60;95.40;;;;;;5060707;28;20211;-82
2022/07/31 01:46:24;;;;;;;2.22;1.27;;;21.60;95.50;;;;;;5095674;27;20033;-81
2022/07/31 01:48:51;;;;;;;3.78;1.95;;;21.60;95.50;;;;;;5062398;28;20040;-82
2022/07/31 01:51:19;;;;;;;2.33;1.40;;;21.60;95.60;;;;;;5064519;28;20041;-82
2022/07/31 01:53:47;;;;;;;2.35;1.40;;;21.60;95.60;;;;;;5063249;28;20129;-82
2022/07/31 01:56:16;;;;;;;1.85;1.30;;;21.50;95.60;;;;;;5061349;28;20434;-80
2022/07/31 01:58:43;;;;;;;6.03;1.50;;;21.40;95.70;;;;;;5061616;28;20557;-81
2022/07/31 02:01:12;;;;;;;1.45;1.20;;;21.40;95.80;;;;;;5064024;28;20087;-81
2022/07/31 02:03:39;;;;;;;1.67;1.20;;;21.40;95.90;;;;;;5063170;28;20041;-81
2022/07/31 02:06:05;;;;;;;2.38;1.55;;;21.40;95.90;;;;;;5063832;28;20037;-82
2022/07/31 02:08:31;;;;;;;2.15;1.25;;;21.40;95.90;;;;;;5060734;28;20053;-82
2022/07/31 02:10:59;;;;;;;2.08;1.48;;;21.40;95.90;;;;;;5060483;28;20051;-81
2022/07/31 02:13:26;;;;;;;1.90;1.25;;;21.30;96.00;;;;;;5063902;28;20044;-81
2022/07/31 02:15:54;;;;;;;2.88;1.55;;;21.30;96.10;;;;;;5062721;28;20106;-81
2022/07/31 02:18:21;;;;;;;4.28;2.00;;;21.30;96.10;;;;;;5079812;28;20052;-81
2022/07/31 02:20:50;;;;;;;2.30;1.27;;;21.30;96.10;;;;;;5063718;28;20110;-81
2022/07/31 02:23:16;;;;;;;1.40;1.08;;;21.30;96.20;;;;;;5063358;28;20435;-82
2022/07/31 02:25:43;;;;;;;2.08;1.23;;;21.20;96.20;;;;;;5060885;28;20044;-81
2022/07/31 02:28:14;;;;;;;1.25;1.00;;;21.20;96.30;;;;;;5062928;28;20045;-81
2022/07/31 02:30:43;;;;;;;2.88;1.50;;;21.10;96.40;;;;;;5095060;27;20049;-81
2022/07/31 02:33:12;;;;;;;0.98;0.85;;;21.20;96.50;;;;;;5062302;28;20040;-81
2022/07/31 02:35:39;;;;;;;1.70;1.27;;;21.10;96.50;;;;;;5063934;28;20044;-81
2022/07/31 02:38:07;;;;;;;1.55;1.20;;;21.10;96.60;;;;;;5061462;28;20068;-82
2022/07/31 02:40:34;;;;;;;1.50;1.15;;;21.10;96.60;;;;;;5076385;28;20118;-81
2022/07/31 02:43:00;;;;;;;1.50;1.08;;;21.10;96.60;;;;;;5062657;28;20101;-81
2022/07/31 02:45:26;;;;;;;2.17;1.35;;;21.10;96.70;;;;;;5046037;28;20033;-81
2022/07/31 02:47:53;;;;;;;5.47;1.42;;;21.00;96.70;;;;;;5061117;28;20446;-81
2022/07/31 02:50:19;;;;;;;3.00;1.50;;;21.00;96.80;;;;;;5061852;28;20119;-81
2022/07/31 02:52:45;;;;;;;2.53;1.30;;;21.00;96.80;;;;;;5061626;28;20036;-81
2022/07/31 02:55:11;;;;;;;3.05;2.03;;;20.90;97.20;;;;;;5093501;27;20116;-81
2022/07/31 02:57:37;;;;;;;1.77;1.20;;;20.80;97.00;;;;;;5062161;28;21065;-82
2022/07/31 03:00:25;;;;;;;2.63;1.40;;;20.70;97.20;;;;;;5060196;28;20049;-81
2022/07/31 03:02:53;;;;;;;3.00;1.65;;;20.70;97.30;;;;;;5062865;28;20040;-81
2022/07/31 03:05:19;;;;;;;4.43;1.40;;;20.60;97.50;;;;;;5096698;27;20338;-81
2022/07/31 03:07:45;;;;;;;6.30;1.80;;;20.60;97.60;;;;;;5062193;28;20621;-81
2022/07/31 03:10:11;;;;;;;1.65;1.17;;;20.60;97.80;;;;;;5059843;28;20045;-81
2022/07/31 03:12:43;;;;;;;1.92;1.20;;;20.60;97.80;;;;;;5096437;27;20036;-81
2022/07/31 03:15:13;;;;;;;4.18;1.70;;;20.60;97.90;;;;;;5061679;28;20051;-81
2022/07/31 03:17:40;;;;;;;3.55;1.60;;;20.60;98.00;;;;;;5062687;28;20041;-81
2022/07/31 03:20:07;;;;;;;2.08;1.30;;;20.60;98.00;;;;;;5064411;28;20586;-81
2022/07/31 03:22:34;;;;;;;2.60;1.48;;;20.60;98.10;;;;;;5097061;27;20037;-81
2022/07/31 03:25:01;;;;;;;1.73;1.30;;;20.70;98.20;;;;;;5066504;28;20037;-81
2022/07/31 03:27:27;;;;;;;2.13;1.23;;;20.70;98.20;;;;;;5066341;28;20048;-81
2022/07/31 03:29:53;;;;;;;1.85;1.40;;;20.60;98.30;;;;;;5068356;28;20087;-81
2022/07/31 03:32:19;;;;;;;2.50;1.58;;;20.60;98.40;;;;;;5069306;28;20132;-82
2022/07/31 03:34:45;;;;;;;1.77;1.30;;;20.60;98.50;;;;;;5070704;28;20123;-82
2022/07/31 03:37:11;;;;;;;1.77;1.30;;;20.50;98.60;;;;;;5075873;28;20159;-81
2022/07/31 03:39:38;;;;;;;2.22;1.30;;;20.50;98.80;;;;;;5073183;28;20096;-81
2022/07/31 03:42:04;;;;;;;1.52;1.30;;;20.50;99.00;;;;;;5070713;28;20098;-81
2022/07/31 03:44:32;;;;;;;3.30;1.33;;;20.40;99.20;;;;;;5067177;28;20045;-81
2022/07/31 03:46:58;;;;;;;3.45;1.98;;;20.40;99.60;;;;;;5066946;28;20033;-81
2022/07/31 03:49:25;;;;;;;2.72;1.25;;;20.40;99.90;;;;;;5102787;27;20088;-81
2022/07/31 03:51:51;;;;;;;2.55;1.63;;;20.50;99.90;;;;;;5097506;27;20041;-81
2022/07/31 03:54:16;;;;;;;2.65;1.65;;;20.50;99.90;;;;;;5100706;27;20570;-81
2022/07/31 03:56:47;;;;;;;3.80;1.73;;;20.60;99.90;;;;;;5067459;28;20194;-81
2022/07/31 03:59:14;;;;;;;2.22;1.73;;;20.60;99.90;;;;;;5065694;28;20636;-81
2022/07/31 04:01:40;;;;;;;4.70;1.88;;;20.60;99.90;;;;;;5051266;28;20071;-81
2022/07/31 04:04:06;;;;;;;4.82;2.00;;;20.70;99.90;;;;;;5068991;28;20070;-81
2022/07/31 04:06:35;;;;;;;2.38;1.70;;;20.70;99.90;;;;;;5067587;28;20044;-81
2022/07/31 04:09:01;;;;;;;7.78;2.60;;;20.70;99.90;;;;;;5082186;28;20086;-81
2022/07/31 04:11:27;;;;;;;2.85;1.85;;;20.60;99.90;;;;;;5063768;28;20044;-81
2022/07/31 04:13:53;;;;;;;3.63;2.00;;;20.70;99.90;;;;;;5065806;28;20040;-81
2022/07/31 04:16:19;;;;;;;4.05;1.90;;;20.70;99.90;;;;;;5067382;28;20045;-81
2022/07/31 04:18:45;;;;;;;2.60;1.70;;;20.70;99.90;;;;;;5063865;28;20049;-81
2022/07/31 04:21:10;;;;;;;3.88;1.77;;;20.70;99.90;;;;;;5082137;28;20041;-81
2022/07/31 04:23:36;;;;;;;3.13;2.47;;;20.70;99.90;;;;;;5065400;28;20452;-81
2022/07/31 04:26:02;;;;;;;3.28;1.77;;;20.70;99.90;;;;;;5067443;28;21034;-82
2022/07/31 04:28:28;;;;;;;3.42;1.98;;;20.70;99.90;;;;;;5066811;28;20076;-81
2022/07/31 04:30:54;;;;;;;2.47;1.60;;;20.80;99.90;;;;;;5067566;28;20625;-82
2022/07/31 04:33:20;;;;;;;3.38;1.83;;;20.80;99.90;;;;;;5066474;28;20080;-82
2022/07/31 04:35:46;;;;;;;3.38;2.28;;;20.80;99.90;;;;;;5067563;28;20094;-82
2022/07/31 04:38:13;;;;;;;4.28;2.20;;;20.80;99.90;;;;;;5068935;28;20139;-82
2022/07/31 04:40:39;;;;;;;4.97;1.98;;;20.80;99.90;;;;;;5064073;28;20697;-82
2022/07/31 04:43:04;;;;;;;4.28;2.03;;;20.80;99.90;;;;;;5063770;28;20595;-82
2022/07/31 04:45:30;;;;;;;3.80;2.13;;;20.90;99.90;;;;;;5064969;28;20569;-82
2022/07/31 04:47:56;;;;;;;6.90;2.33;;;20.90;99.90;;;;;;5064331;28;20080;-81
2022/07/31 04:50:22;;;;;;;4.25;1.90;;;20.90;99.90;;;;;;5062679;28;20052;-81
2022/07/31 04:52:48;;;;;;;3.35;2.08;;;20.80;99.90;;;;;;5067304;28;20602;-81
2022/07/31 04:55:14;;;;;;;3.13;2.08;;;20.80;99.90;;;;;;5064174;28;20171;-81
2022/07/31 04:57:40;;;;;;;3.17;2.78;;;21.10;99.90;;;;;;5065427;28;20094;-82
2022/07/31 05:00:08;;;;;;;3.55;1.88;;;20.80;99.90;;;;;;5064841;28;20045;-81
2022/07/31 05:02:34;;;;;;;4.43;2.03;;;20.90;99.90;;;;;;5061522;28;20041;-81
2022/07/31 05:05:00;;;;;;;2.42;1.58;;;20.80;99.90;;;;;;5066305;28;20605;-81
2022/07/31 05:07:26;;;;;;;6.07;2.40;;;20.80;99.90;;;;;;5098642;27;20041;-81
2022/07/31 05:09:51;;;;;;;3.22;2.05;;;20.80;99.90;;;;;;5062769;28;20419;-81
2022/07/31 05:12:17;;;;;;;2.72;1.58;;;20.80;99.90;;;;;;5064949;28;20045;-81
2022/07/31 05:14:43;;;;;;;3.30;1.90;;;20.70;99.90;;;;;;5065593;28;20124;-82
2022/07/31 05:17:09;;;;;;;1.90;1.45;;;20.70;99.90;;;;;;5062342;28;20041;-81
2022/07/31 05:19:34;;;;;;;3.13;1.85;;;20.70;99.90;;;;;;5097878;27;20546;-81
2022/07/31 05:22:00;;;;;;;4.65;2.05;;;20.70;99.90;;;;;;5066213;28;20048;-81
2022/07/31 05:24:26;;;;;;;1.92;1.45;;;20.70;99.90;;;;;;5048068;28;20064;-81
2022/07/31 05:26:52;;;;;;;5.22;1.80;;;20.80;99.90;;;;;;5080211;28;20049;-81
2022/07/31 05:29:17;;;;;;;3.58;1.60;;;20.80;99.90;;;;;;5065076;28;20091;-82
2022/07/31 05:31:43;;;;;;;4.97;1.70;;;20.80;99.90;;;;;;5049837;28;20052;-82
2022/07/31 05:34:09;;;;;;;2.95;1.60;;;20.80;99.90;;;;;;5068535;28;20522;-82
2022/07/31 05:36:35;;;;;;;3.45;1.85;;;20.80;99.90;;;;;;5066945;28;20914;-82
2022/07/31 05:39:01;;;;;;;3.58;2.05;;;20.80;99.90;;;;;;5069416;28;20526;-82
2022/07/31 05:41:28;;;;;;;2.95;2.40;;;20.70;99.90;;;;;;5064547;28;20075;-82
2022/07/31 05:43:54;;;;;;;2.80;1.90;;;20.70;99.90;;;;;;5065024;28;20523;-82
2022/07/31 05:46:20;;;;;;;6.22;2.00;;;20.70;99.90;;;;;;5063823;28;20041;-82
2022/07/31 05:48:45;;;;;;;4.00;2.30;;;20.70;99.90;;;;;;5063231;28;20049;-82
2022/07/31 05:51:12;;;;;;;3.70;2.50;;;20.80;99.90;;;;;;5062556;28;20043;-82
2022/07/31 05:53:39;;;;;;;4.47;2.00;;;20.70;99.90;;;;;;5063058;28;20534;-82
2022/07/31 05:56:05;;;;;;;4.13;2.17;;;20.70;99.90;;;;;;5059020;28;20048;-82
2022/07/31 05:58:32;;;;;;;6.20;2.10;;;20.70;99.90;;;;;;5062498;28;20052;-81
2022/07/31 06:00:59;;;;;;;3.83;2.08;;;20.80;99.90;;;;;;5061387;28;20126;-82
2022/07/31 06:03:28;;;;;;;3.58;2.15;;;20.80;99.90;;;;;;5061399;28;20482;-81
2022/07/31 06:05:55;;;;;;;4.32;2.58;;;20.90;99.90;;;;;;5061053;28;20830;-81
2022/07/31 06:08:21;;;;;;;3.40;2.63;;;21.00;99.90;;;;;;5062511;28;20061;-82
2022/07/31 06:10:47;;;;;;;4.32;2.47;;;21.00;99.90;;;;;;5062995;28;20036;-82
2022/07/31 06:13:13;;;;;;;3.10;2.33;;;20.90;99.90;;;;;;5065227;28;20063;-82
2022/07/31 06:15:41;;;;;;;4.35;2.63;;;20.90;99.90;;;;;;5061726;28;20135;-81
2022/07/31 06:18:07;;;;;;;3.88;2.10;;;20.90;99.90;;;;;;5063702;28;20052;-82
2022/07/31 06:20:32;;;;;;;4.65;2.70;;;20.90;99.90;;;;;;5063539;28;20044;-82
2022/07/31 06:22:59;;;;;;;4.38;2.45;;;20.90;99.90;;;;;;5063236;28;20047;-82
2022/07/31 06:25:25;;;;;;;3.50;2.47;;;21.00;99.90;;;;;;5094770;27;20136;-82
2022/07/31 06:27:50;;;;;;;2.83;2.13;;;21.00;99.90;;;;;;5063527;28;20045;-82
2022/07/31 06:30:16;;;;;;;4.13;2.45;;;21.00;99.90;;;;;;5095354;27;20515;-82
2022/07/31 06:32:42;;;;;;;3.45;2.08;;;20.90;99.90;;;;;;5061976;28;20041;-82
2022/07/31 06:35:09;;;;;;;3.25;2.28;;;21.00;99.90;;;;;;5057834;28;20431;-80
2022/07/31 06:37:35;;;;;;;4.53;2.75;;;21.10;99.90;;;;;;5095407;27;20037;-81
2022/07/31 06:40:01;;;;;;;3.60;2.35;;;21.20;99.90;;;;;;5061746;28;20048;-81
2022/07/31 06:42:27;;;;;;;3.80;2.33;;;21.30;99.90;;;;;;5059855;28;20451;-82
2022/07/31 06:44:53;;;;;;;3.70;2.40;;;21.40;99.90;;;;;;5060464;28;20037;-81
2022/07/31 06:47:21;;;;;;;3.92;2.13;;;21.40;99.90;;;;;;5059738;28;20036;-82
2022/07/31 06:49:47;;;;;;;3.58;2.55;;;21.60;99.90;;;;;;5062004;28;20091;-82
2022/07/31 06:52:14;;;;;;;5.70;2.33;;;21.60;99.90;;;;;;5060021;28;20585;-83
2022/07/31 06:54:41;;;;;;;3.67;2.33;;;21.60;99.90;;;;;;5061257;28;20116;-81
2022/07/31 06:57:07;;;;;;;4.10;2.30;;;21.60;99.90;;;;;;5059232;28;20036;-82
2022/07/31 06:59:33;;;;;;;5.13;2.60;;;21.60;99.90;;;;;;5091606;27;20449;-82
2022/07/31 07:01:59;;;;;;;4.53;3.03;;;21.70;99.90;;;;;;5060360;28;20126;-82
2022/07/31 07:04:24;;;;;;;3.92;2.22;;;21.70;99.90;;;;;;5063407;28;20103;-82
2022/07/31 07:06:50;;;;;;;3.92;2.45;;;21.60;99.90;;;;;;5092731;27;20080;-82
2022/07/31 07:09:16;;;;;;;4.68;2.67;;;21.60;99.90;;;;;;5061059;28;20569;-82
2022/07/31 07:11:41;;;;;;;3.70;2.50;;;21.50;99.90;;;;;;5063239;28;20486;-82
2022/07/31 07:14:07;;;;;;;5.22;1.90;;;21.60;99.90;;;;;;5066591;28;20779;-81
2022/07/31 07:16:33;;;;;;;3.38;2.25;;;21.60;99.90;;;;;;5064950;28;20388;-81
2022/07/31 07:18:58;;;;;;;3.85;2.47;;;21.60;99.90;;;;;;5062172;28;20565;-82
2022/07/31 07:21:25;;;;;;;3.35;2.15;;;21.70;99.90;;;;;;5061220;28;20045;-81
2022/07/31 07:23:50;;;;;;;4.72;2.33;;;21.80;99.90;;;;;;5089705;27;20466;-81
2022/07/31 07:26:17;;;;;;;4.10;2.58;;;21.80;99.90;;;;;;5061065;28;20054;-81
2022/07/31 07:28:43;;;;;;;5.53;2.30;;;21.80;99.90;;;;;;5093797;27;21732;-82
2022/07/31 07:31:09;;;;;;;4.30;2.33;;;21.80;99.90;;;;;;5058757;28;20036;-81
2022/07/31 07:33:35;;;;;;;3.25;2.13;;;21.70;99.90;;;;;;5058529;28;20053;-81
2022/07/31 07:36:01;;;;;;;3.88;2.63;;;21.60;99.90;;;;;;5057493;28;20573;-82
2022/07/31 07:38:28;;;;;;;5.72;2.33;;;21.40;99.90;;;;;;5074800;28;20045;-83
2022/07/31 07:40:54;;;;;;;4.10;2.88;;;21.30;99.90;;;;;;5057099;28;20033;-82
2022/07/31 07:43:20;;;;;;;3.75;2.63;;;21.30;99.90;;;;;;5059282;28;20040;-82
2022/07/31 07:45:45;;;;;;;5.32;2.95;;;21.20;99.90;;;;;;5073618;28;20045;-82
2022/07/31 07:48:11;;;;;;;4.82;2.78;;;;;;;;;;5060088;28;20041;-80
2022/07/31 07:50:37;;;;;;;5.38;2.38;;;;;;;;;;5044508;28;20631;-80
2022/07/31 07:53:03;;;;;;;3.40;2.20;;;;;;;;;;5061770;28;20072;-81
2022/07/31 07:55:30;;;;;;;4.15;2.58;;;;;;;;;;5060685;28;20115;-81
2022/07/31 07:57:56;;;;;;;3.13;2.53;;;;;;;;;;5059153;28;20049;-81
2022/07/31 08:00:22;;;;;;;4.38;3.03;;;;;;;;;;5058849;28;20453;-80
2022/07/31 08:02:48;;;;;;;5.28;3.25;;;;;;;;;;5061960;28;20055;-81
2022/07/31 08:05:14;;;;;;;3.50;2.47;;;;;;;;;;5056768;28;20037;-80
2022/07/31 08:07:41;;;;;;;4.88;2.70;;;;;;;;;;5061777;28;20923;-81
2022/07/31 08:10:07;;;;;;;5.38;2.95;;;;;;;;;;5066250;28;20051;-81
2022/07/31 08:12:34;;;;;;;4.72;2.60;;;;;;;;;;5067620;28;20141;-82
2022/07/31 08:15:00;;;;;;;3.67;2.70;;;;;;;;;;5097800;27;20275;-92
2022/07/31 08:17:26;;;;;;;4.15;2.50;;;;;;;;;;5066122;28;20132;-82
2022/07/31 08:19:52;;;;;;;3.58;2.60;;;;;;;;;;5065572;28;20049;-82
2022/07/31 08:22:18;;;;;;;6.43;3.53;;;;;;;;;;5066949;28;20071;-82
2022/07/31 08:24:45;;;;;;;3.58;2.50;;;;;;;;;;5064159;28;20068;-82
2022/07/31 08:27:26;;;;;;;4.07;2.35;;;;;;;;;;5066148;28;20120;-82
2022/07/31 08:29:59;;;;;;;7.13;3.58;;;;;;;;;;5048241;28;20957;-82
2022/07/31 08:32:26;;;;;;;3.25;2.38;;;;;;;;;;5063193;28;20598;-82
2022/07/31 08:34:52;;;;;;;3.47;2.17;;;;;;;;;;5095410;27;20058;-81
2022/07/31 08:37:18;;;;;;;3.67;2.35;;;;;;;;;;5064705;28;20041;-82
2022/07/31 08:39:45;;;;;;;3.20;2.33;;;;;;;;;;5063007;28;20041;-82
2022/07/31 08:42:11;;;;;;;4.03;2.42;;;;;;;;;;5066818;28;20037;-82
2022/07/31 08:44:41;;;;;;;2.90;2.03;;;;;;;;;;5066948;28;20132;-82
2022/07/31 08:47:11;;;;;;;3.80;2.85;;;;;;;;;;5065394;28;20040;-82
2022/07/31 08:49:42;;;;;;;3.13;2.15;;;;;;;;;;5063908;28;20090;-81
2022/07/31 08:52:15;;;;;;;3.47;2.28;;;;;;;;;;5064333;28;20041;-87
2022/07/31 08:54:42;;;;;;;3.97;2.53;;;;;;;;;;5062500;28;20131;-83
2022/07/31 08:57:09;;;;;;;3.90;2.20;;;;;;;;;;5096298;27;20052;-84
2022/07/31 08:59:36;;;;;;;3.10;2.17;;;;;;;;;;5097765;27;20490;-85
2022/07/31 09:02:03;;;;;;;3.90;2.60;;;;;;;;;;5094300;27;20695;-85
2022/07/31 09:04:30;;;;;;;4.15;2.13;;;;;;;;;;5067207;28;20040;-84
2022/07/31 09:06:59;;;;;;;3.42;2.42;;;;;;;;;;5091728;27;20048;-85
2022/07/31 09:09:26;;;;;;;4.95;3.15;;;;;;;;;;5098204;27;20045;-85
2022/07/31 09:11:55;;;;;;;4.45;2.78;;;;;;;;;;5096560;27;20032;-84
2022/07/31 09:14:29;;;;;;;3.85;2.35;;;21.70;99.90;;;;;;5065357;28;20135;-84
2022/07/31 09:16:55;;;;;;;3.78;2.35;;;21.60;99.90;;;;;;5065870;28;20080;-84
2022/07/31 09:19:23;;;;;;;4.18;2.50;;;21.60;99.90;;;;;;5065148;28;20128;-84
2022/07/31 09:21:51;;;;;;;4.30;3.20;;;21.60;99.90;;;;;;5065992;28;20036;-84
2022/07/31 09:24:29;;;;;;;5.07;3.22;;;21.70;99.90;;;;;;5064597;28;20037;-85
2022/07/31 09:27:06;;;;;;;3.53;2.55;;;21.70;99.90;;;;;;5095646;27;20550;-85
2022/07/31 09:29:41;;;;;;;4.65;3.28;;;21.70;99.90;;;;;;5096292;27;20049;-84
2022/07/31 09:32:18;;;;;;;3.00;2.10;;;21.70;99.90;;;;;;5057230;28;20037;-85
2022/07/31 09:34:44;;;;;;;5.15;2.90;;;21.70;99.90;;;;;;5060265;28;20937;-81
2022/07/31 09:37:15;;;;;;;6.70;2.45;;;21.70;99.90;;;;;;5063105;28;20033;-81
2022/07/31 09:39:47;;;;;;;3.78;2.83;;;21.80;99.90;;;;;;5094785;27;20043;-81
2022/07/31 09:42:13;;;;;;;4.22;2.42;;;21.80;99.90;;;;;;5062469;28;20049;-81
2022/07/31 09:44:42;;;;;;;3.83;2.42;;;21.80;99.90;;;;;;5096010;27;20040;-81
2022/07/31 09:47:20;;;;;;;4.40;2.70;;;21.90;99.90;;;;;;5058767;28;20367;-82
2022/07/31 09:49:57;;;;;;;4.45;2.83;;;21.90;99.90;;;;;;5062025;28;20068;-81
2022/07/31 09:52:24;;;;;;;3.85;1.92;;;21.90;99.90;;;;;;5060793;28;20068;-81
2022/07/31 09:55:08;;;;;;;3.00;2.13;;;22.00;99.90;;;;;;5061906;28;20527;-77
2022/07/31 09:57:36;;;;;;;3.47;2.25;;;22.00;99.90;;;;;;5064520;28;20044;-77
2022/07/31 10:00:04;;;;;;;3.38;2.58;;;22.00;99.90;;;;;;5059934;28;20126;-77
2022/07/31 10:02:31;;;;;;;4.65;3.40;;;22.00;99.90;;;;;;5061360;28;20508;-77
2022/07/31 10:04:58;;;;;;;3.85;2.75;;;22.10;99.90;;;;;;5061250;28;20274;-78
2022/07/31 10:07:26;;;;;;;4.97;2.20;;;22.10;99.90;;;;;;5055441;28;20470;-77
2022/07/31 10:09:56;;;;;;;9.07;3.25;;;22.20;99.90;;;;;;5060003;28;20044;-77
2022/07/31 10:12:27;;;;;;;4.03;2.50;;;22.20;99.90;;;;;;5054814;28;20070;-77
2022/07/31 10:14:54;;;;;;;;;;;22.20;99.90;;;;;;5055750;28;20467;-77
2022/07/31 10:17:26;;;;;;;5.00;3.33;;;22.20;99.90;;;;;;5057519;28;19928;-77
2022/07/31 10:19:54;;;;;;;5.43;2.75;;;22.20;99.90;;;;;;5059385;28;20131;-77
2022/07/31 10:22:21;;;;;;;5.07;1.98;;;22.20;99.90;;;;;;5060439;28;20040;-77
2022/07/31 10:24:51;;;;;;;7.22;2.90;;;22.30;99.90;;;;;;5060625;28;20045;-78
2022/07/31 10:27:18;;;;;;;3.22;2.38;;;22.30;99.90;;;;;;5061301;28;20091;-78
2022/07/31 10:29:44;;;;;;;3.90;2.38;;;22.30;99.90;;;;;;5059805;28;20135;-78
2022/07/31 10:32:10;;;;;;;4.10;2.83;;;22.40;99.90;;;;;;5057628;28;20656;-80
2022/07/31 10:34:36;;;;;;;4.32;2.53;;;22.40;99.90;;;;;;5076701;28;20037;-78
2022/07/31 10:37:12;;;;;;;3.22;2.50;;;22.40;99.90;;;;;;5062545;28;20045;-78
2022/07/31 10:39:52;;;;;;;3.67;2.33;;;22.40;99.90;;;;;;5060816;28;20099;-78
2022/07/31 10:42:50;;;;;;;4.40;2.28;;;22.40;99.90;;;;;;5064408;28;20079;-78
2022/07/31 10:45:16;;;;;;;3.50;2.50;;;22.50;99.90;;;;;;5038646;28;20135;-77
2022/07/31 10:47:59;;;;;;;3.70;2.40;;;22.50;99.90;;;;;;5064204;28;20091;-77
2022/07/31 10:50:29;;;;;;;4.88;3.10;;;22.60;99.90;;;;;;5063509;28;20452;-77
2022/07/31 10:53:07;;;;;;;5.70;3.22;;;22.50;99.90;;;;;;5064081;28;20584;-77
2022/07/31 10:55:34;;;;;;;6.03;3.60;;;22.60;99.90;;;;;;5064378;28;20040;-78
2022/07/31 10:58:14;;;;;;;4.50;2.70;;;22.70;99.90;;;;;;5060032;28;20057;-79
2022/07/31 11:00:40;;;;;;;4.10;2.83;;;22.70;99.90;;;;;;5057277;28;20049;-78
2022/07/31 11:03:17;;;;;;;6.10;2.17;;;22.70;99.90;;;;;;5058952;28;20052;-77
2022/07/31 11:05:57;;;;;;;4.90;2.38;;;22.70;99.90;;;;;;5061663;28;20068;-76
2022/07/31 11:08:22;;;;;;;3.15;2.22;;;22.70;99.90;;;;;;5058610;28;20334;-76
2022/07/31 11:10:54;;;;;;;5.43;2.55;;;22.70;99.90;;;;;;5094262;27;20106;-77
2022/07/31 11:13:22;;;;;;;3.47;2.33;;;22.70;99.90;;;;;;5076057;28;20831;-79
2022/07/31 11:15:51;;;;;;;4.93;2.20;;;22.80;99.90;;;;;;5058294;28;20558;-77
2022/07/31 11:18:23;;;;;;;3.55;2.97;;;22.90;99.90;;;;;;5064282;28;20120;-77
2022/07/31 11:21:04;;;;;;;3.85;2.38;;;22.90;99.90;;;;;;5060361;28;20075;-77
2022/07/31 11:23:32;;;;;;;4.05;2.13;;;22.90;99.90;;;;;;5063905;28;20065;-77
2022/07/31 11:25:59;;;;;;;5.00;2.65;;;22.90;99.90;;;;;;5062993;28;20090;-77
2022/07/31 11:28:25;;;;;;;4.18;2.38;;;23.00;99.90;;;;;;5064432;28;20222;-77
2022/07/31 11:31:05;;;;;;;4.65;2.88;;;23.00;99.90;;;;;;5063330;28;20989;-77
2022/07/31 11:33:37;;;;;;;3.58;2.55;;;23.10;99.90;;;;;;5063530;28;20041;-77
2022/07/31 11:36:12;;;;;;;4.18;2.63;;;23.10;99.90;;;;;;5060435;28;20091;-77
2022/07/31 11:38:40;;;;;;;5.00;2.83;;;23.10;99.90;;;;;;5061872;28;20033;-77
2022/07/31 11:41:06;;;;;;;5.55;4.07;;;23.20;99.90;;;;;;5080672;28;20775;-77
2022/07/31 11:43:33;;;;;;;4.65;3.08;;;23.20;99.90;;;;;;5063017;28;20044;-77
2022/07/31 11:46:00;;;;;;;3.90;2.13;;;23.20;99.90;;;;;;5064016;28;20841;-77
2022/07/31 11:48:26;;;;;;;3.22;2.38;;;23.20;99.90;;;;;;5065261;28;20526;-77
2022/07/31 11:50:52;;;;;;;3.95;2.67;;;23.20;99.90;;;;;;5066227;28;20123;-76
2022/07/31 11:53:18;;;;;;;4.68;3.38;;;23.30;99.90;;;;;;5059734;28;20041;-77
2022/07/31 11:55:49;;;;;;;4.35;2.10;;;23.40;99.90;;;;;;5059957;28;20040;-78
2022/07/31 11:58:16;;;;;;;5.40;2.92;;;23.40;99.90;;;;;;5063471;28;20044;-77
2022/07/31 12:00:52;;;;;;;4.50;2.55;;;23.50;99.90;;;;;;5061016;28;20429;-77
2022/07/31 12:03:19;;;;;;;4.15;2.55;;;23.50;99.90;;;;;;5058949;28;20506;-77
2022/07/31 12:05:49;;;;;;;2.17;1.55;;;23.60;99.90;;;;;;5061951;28;20082;-77
2022/07/31 12:08:15;;;;;;;3.20;1.80;;;23.60;99.90;;;;;;5059827;28;20076;-77
2022/07/31 12:10:41;;;;;;;3.40;2.20;;;23.60;99.90;;;;;;5060278;28;20037;-76
2022/07/31 12:13:18;;;;;;;4.45;2.33;;;23.70;99.90;;;;;;5062703;28;20539;-77
2022/07/31 12:16:04;;;;;;;4.95;2.05;;;23.60;99.90;;;;;;5058140;28;20182;-81
2022/07/31 12:18:44;;;;;;;2.78;1.92;;;23.70;99.90;;;;;;5092753;27;20658;-80
2022/07/31 12:21:09;;;;;;;3.28;2.13;;;23.70;99.90;;;;;;5061356;28;20451;-81
2022/07/31 12:23:48;;;;;;;3.05;2.47;;;23.70;99.90;;;;;;5061380;28;20045;-80
2022/07/31 12:26:28;;;;;;;3.85;2.50;;;23.70;99.90;;;;;;5063007;28;20094;-79
2022/07/31 12:29:09;;;;;;;2.78;1.95;;;23.80;99.90;;;;;;5062846;28;20048;-79
2022/07/31 12:31:48;;;;;;;2.22;1.65;;;23.80;99.90;;;;;;5060767;28;20087;-79
2022/07/31 12:34:37;;;;;;;3.83;2.10;;;23.90;99.90;;;;;;5060891;28;20055;-79
2022/07/31 12:37:05;;;;;;;3.10;2.42;;;24.00;99.90;;;;;;5064308;28;20040;-79
2022/07/31 12:39:36;;;;;;;2.83;1.85;;;24.00;99.90;;;;;;5061360;28;20075;-79
2022/07/31 12:42:02;;;;;;;4.80;2.10;;;24.00;99.90;;;;;;5061292;28;20696;-80
2022/07/31 12:44:28;;;;;;;2.47;1.90;;;24.00;99.90;;;;;;5058515;28;21203;-79
2022/07/31 12:46:54;;;;;;;3.05;2.60;;;24.00;99.90;;;;;;5060692;28;20880;-80
2022/07/31 12:49:20;;;;;;;2.47;1.80;;;24.10;99.90;;;;;;5063429;28;20047;-79
2022/07/31 12:51:46;;;;;;;5.85;1.55;;;24.10;99.90;;;;;;5062706;28;20049;-79
2022/07/31 12:54:16;;;;;;;2.40;1.65;;;24.10;99.90;;;;;;5064366;28;20813;-79
2022/07/31 12:56:43;;;;;;;3.33;1.75;;;24.20;99.90;;;;;;5058801;28;20047;-80
2022/07/31 12:59:09;;;;;;;3.15;2.40;;;24.20;99.90;;;;;;5061566;28;20037;-79
2022/07/31 13:01:35;;;;;;;2.58;1.73;;;24.20;99.90;;;;;;5061951;28;20045;-79
2022/07/31 13:04:02;;;;;;;3.30;2.10;;;24.20;99.90;;;;;;5062845;28;20562;-79